sensor_id;sensor_type;location;lat;lon;timestamp;P1;durP1;ratioP1;P2;durP2;ratioP2
60935;SDS011;46804;51.786;19.520;2023-05-17T00:02:22;19.42;;;14.05;;
60935;SDS011;46804;51.786;19.520;2023-05-17T00:06:23;20.45;;;14.52;;
60935;SDS011;46804;51.786;19.520;2023-05-17T00:10:23;24.00;;;14.13;;
60935;SDS011;46804;51.786;19.520;2023-05-17T00:14:24;20.52;;;13.77;;
60935;SDS011;46804;51.786;19.520;2023-05-17T00:18:25;22.55;;;13.18;;
60935;SDS011;46804;51.786;19.520;2023-05-17T00:22:25;17.35;;;12.25;;
60935;SDS011;46804;51.786;19.520;2023-05-17T00:26:27;20.98;;;14.68;;
60935;SDS011;46804;51.786;19.520;2023-05-17T00:30:27;17.80;;;12.13;;
60935;SDS011;46804;51.786;19.520;2023-05-17T00:34:28;22.20;;;13.90;;
60935;SDS011;46804;51.786;19.520;2023-05-17T00:38:29;18.27;;;13.15;;
60935;SDS011;46804;51.786;19.520;2023-05-17T00:42:29;20.10;;;13.20;;
60935;SDS011;46804;51.786;19.520;2023-05-17T00:46:30;23.80;;;13.32;;
60935;SDS011;46804;51.786;19.520;2023-05-17T00:50:33;23.30;;;14.30;;
60935;SDS011;46804;51.786;19.520;2023-05-17T00:54:34;23.27;;;13.77;;
60935;SDS011;46804;51.786;19.520;2023-05-17T00:58:35;19.48;;;12.80;;
60935;SDS011;46804;51.786;19.520;2023-05-17T01:02:36;18.75;;;13.63;;
60935;SDS011;46804;51.786;19.520;2023-05-17T01:06:37;18.65;;;12.65;;
60935;SDS011;46804;51.786;19.520;2023-05-17T01:10:43;19.60;;;12.95;;
60935;SDS011;46804;51.786;19.520;2023-05-17T01:19:08;15.95;;;11.38;;
60935;SDS011;46804;51.786;19.520;2023-05-17T01:27:57;19.92;;;11.40;;
60935;SDS011;46804;51.786;19.520;2023-05-17T01:31:59;17.80;;;11.38;;
60935;SDS011;46804;51.786;19.520;2023-05-17T01:36:02;14.02;;;10.55;;
60935;SDS011;46804;51.786;19.520;2023-05-17T01:40:04;15.75;;;11.35;;
60935;SDS011;46804;51.786;19.520;2023-05-17T01:48:19;15.00;;;10.32;;
60935;SDS011;46804;51.786;19.520;2023-05-17T01:52:23;14.80;;;10.15;;
60935;SDS011;46804;51.786;19.520;2023-05-17T01:56:32;19.52;;;10.50;;
60935;SDS011;46804;51.786;19.520;2023-05-17T02:00:34;13.70;;;10.13;;
60935;SDS011;46804;51.786;19.520;2023-05-17T02:04:35;14.68;;;10.80;;
60935;SDS011;46804;51.786;19.520;2023-05-17T02:08:36;19.63;;;10.80;;
60935;SDS011;46804;51.786;19.520;2023-05-17T02:12:37;17.08;;;11.60;;
60935;SDS011;46804;51.786;19.520;2023-05-17T02:16:38;16.75;;;11.13;;
60935;SDS011;46804;51.786;19.520;2023-05-17T02:20:38;15.15;;;10.07;;
60935;SDS011;46804;51.786;19.520;2023-05-17T02:24:39;15.70;;;10.00;;
60935;SDS011;46804;51.786;19.520;2023-05-17T02:28:40;14.32;;;9.18;;
60935;SDS011;46804;51.786;19.520;2023-05-17T02:32:41;15.45;;;9.80;;
60935;SDS011;46804;51.786;19.520;2023-05-17T02:36:42;12.75;;;9.15;;
60935;SDS011;46804;51.786;19.520;2023-05-17T02:40:43;17.77;;;11.25;;
60935;SDS011;46804;51.786;19.520;2023-05-17T02:44:44;18.05;;;9.38;;
60935;SDS011;46804;51.786;19.520;2023-05-17T02:48:45;14.15;;;8.80;;
60935;SDS011;46804;51.786;19.520;2023-05-17T02:52:46;12.80;;;8.75;;
60935;SDS011;46804;51.786;19.520;2023-05-17T02:56:46;12.63;;;8.32;;
60935;SDS011;46804;51.786;19.520;2023-05-17T03:00:47;16.88;;;9.32;;
60935;SDS011;46804;51.786;19.520;2023-05-17T03:04:48;12.35;;;7.60;;
60935;SDS011;46804;51.786;19.520;2023-05-17T03:08:48;9.85;;;6.93;;
60935;SDS011;46804;51.786;19.520;2023-05-17T03:12:49;14.73;;;8.70;;
60935;SDS011;46804;51.786;19.520;2023-05-17T03:16:51;13.93;;;8.20;;
60935;SDS011;46804;51.786;19.520;2023-05-17T03:20:51;11.32;;;8.40;;
60935;SDS011;46804;51.786;19.520;2023-05-17T03:24:52;11.18;;;8.55;;
60935;SDS011;46804;51.786;19.520;2023-05-17T03:28:53;15.13;;;9.15;;
60935;SDS011;46804;51.786;19.520;2023-05-17T03:32:54;12.68;;;8.30;;
60935;SDS011;46804;51.786;19.520;2023-05-17T03:36:54;14.07;;;9.48;;
60935;SDS011;46804;51.786;19.520;2023-05-17T03:40:55;22.65;;;9.70;;
60935;SDS011;46804;51.786;19.520;2023-05-17T03:44:56;17.88;;;10.13;;
60935;SDS011;46804;51.786;19.520;2023-05-17T03:48:57;17.27;;;10.43;;
60935;SDS011;46804;51.786;19.520;2023-05-17T03:52:58;14.25;;;9.13;;
60935;SDS011;46804;51.786;19.520;2023-05-17T03:56:58;13.55;;;8.73;;
60935;SDS011;46804;51.786;19.520;2023-05-17T04:00:59;14.20;;;9.43;;
60935;SDS011;46804;51.786;19.520;2023-05-17T04:05:00;18.58;;;10.00;;
60935;SDS011;46804;51.786;19.520;2023-05-17T04:09:01;16.30;;;9.38;;
60935;SDS011;46804;51.786;19.520;2023-05-17T04:13:02;14.73;;;10.40;;
60935;SDS011;46804;51.786;19.520;2023-05-17T04:17:03;14.75;;;8.48;;
60935;SDS011;46804;51.786;19.520;2023-05-17T04:21:04;13.60;;;8.52;;
60935;SDS011;46804;51.786;19.520;2023-05-17T04:25:05;12.90;;;8.68;;
60935;SDS011;46804;51.786;19.520;2023-05-17T04:29:06;12.40;;;8.30;;
60935;SDS011;46804;51.786;19.520;2023-05-17T04:33:06;14.90;;;10.10;;
60935;SDS011;46804;51.786;19.520;2023-05-17T04:37:07;13.50;;;9.88;;
60935;SDS011;46804;51.786;19.520;2023-05-17T04:41:08;12.70;;;8.38;;
60935;SDS011;46804;51.786;19.520;2023-05-17T04:45:09;15.25;;;10.23;;
60935;SDS011;46804;51.786;19.520;2023-05-17T04:49:12;14.00;;;8.32;;
60935;SDS011;46804;51.786;19.520;2023-05-17T04:53:13;13.77;;;8.40;;
60935;SDS011;46804;51.786;19.520;2023-05-17T04:57:15;16.15;;;7.78;;
60935;SDS011;46804;51.786;19.520;2023-05-17T05:01:15;16.38;;;8.45;;
60935;SDS011;46804;51.786;19.520;2023-05-17T05:05:16;11.95;;;7.57;;
60935;SDS011;46804;51.786;19.520;2023-05-17T05:09:17;9.45;;;6.30;;
60935;SDS011;46804;51.786;19.520;2023-05-17T05:13:18;15.57;;;5.82;;
60935;SDS011;46804;51.786;19.520;2023-05-17T05:17:19;8.90;;;4.95;;
60935;SDS011;46804;51.786;19.520;2023-05-17T05:21:19;9.10;;;4.97;;
60935;SDS011;46804;51.786;19.520;2023-05-17T05:25:20;7.38;;;5.05;;
60935;SDS011;46804;51.786;19.520;2023-05-17T05:29:21;10.63;;;4.78;;
60935;SDS011;46804;51.786;19.520;2023-05-17T05:33:21;6.38;;;4.10;;
60935;SDS011;46804;51.786;19.520;2023-05-17T05:37:22;12.32;;;4.10;;
60935;SDS011;46804;51.786;19.520;2023-05-17T05:41:23;10.98;;;4.32;;
60935;SDS011;46804;51.786;19.520;2023-05-17T05:45:24;9.23;;;3.80;;
60935;SDS011;46804;51.786;19.520;2023-05-17T05:49:24;12.70;;;4.57;;
60935;SDS011;46804;51.786;19.520;2023-05-17T05:53:25;7.78;;;3.38;;
60935;SDS011;46804;51.786;19.520;2023-05-17T05:57:26;12.52;;;3.92;;
60935;SDS011;46804;51.786;19.520;2023-05-17T06:01:26;7.68;;;3.35;;
60935;SDS011;46804;51.786;19.520;2023-05-17T06:05:28;7.68;;;3.80;;
60935;SDS011;46804;51.786;19.520;2023-05-17T06:09:28;11.13;;;3.95;;
60935;SDS011;46804;51.786;19.520;2023-05-17T06:13:29;9.07;;;3.50;;
60935;SDS011;46804;51.786;19.520;2023-05-17T06:17:30;11.10;;;3.75;;
60935;SDS011;46804;51.786;19.520;2023-05-17T06:21:31;10.10;;;4.07;;
60935;SDS011;46804;51.786;19.520;2023-05-17T06:25:31;18.35;;;4.65;;
60935;SDS011;46804;51.786;19.520;2023-05-17T06:29:32;11.77;;;4.60;;
60935;SDS011;46804;51.786;19.520;2023-05-17T06:33:33;8.50;;;3.80;;
60935;SDS011;46804;51.786;19.520;2023-05-17T06:37:34;10.35;;;5.07;;
60935;SDS011;46804;51.786;19.520;2023-05-17T06:41:34;7.80;;;4.57;;
60935;SDS011;46804;51.786;19.520;2023-05-17T06:45:35;14.02;;;5.00;;
60935;SDS011;46804;51.786;19.520;2023-05-17T06:49:36;12.55;;;5.18;;
60935;SDS011;46804;51.786;19.520;2023-05-17T06:53:36;9.27;;;5.97;;
60935;SDS011;46804;51.786;19.520;2023-05-17T06:57:37;8.70;;;5.13;;
60935;SDS011;46804;51.786;19.520;2023-05-17T07:01:38;12.38;;;6.10;;
60935;SDS011;46804;51.786;19.520;2023-05-17T07:05:39;13.10;;;6.28;;
60935;SDS011;46804;51.786;19.520;2023-05-17T07:09:40;14.05;;;6.97;;
60935;SDS011;46804;51.786;19.520;2023-05-17T07:13:41;12.60;;;6.68;;
60935;SDS011;46804;51.786;19.520;2023-05-17T07:17:41;12.23;;;6.75;;
60935;SDS011;46804;51.786;19.520;2023-05-17T07:21:43;12.80;;;6.35;;
60935;SDS011;46804;51.786;19.520;2023-05-17T07:25:44;11.38;;;6.28;;
60935;SDS011;46804;51.786;19.520;2023-05-17T07:29:45;16.35;;;7.28;;
60935;SDS011;46804;51.786;19.520;2023-05-17T07:33:46;14.68;;;6.90;;
60935;SDS011;46804;51.786;19.520;2023-05-17T07:37:47;13.43;;;7.35;;
60935;SDS011;46804;51.786;19.520;2023-05-17T07:41:48;13.00;;;6.28;;
60935;SDS011;46804;51.786;19.520;2023-05-17T07:45:48;10.68;;;7.22;;
60935;SDS011;46804;51.786;19.520;2023-05-17T07:49:49;15.40;;;7.50;;
60935;SDS011;46804;51.786;19.520;2023-05-17T07:53:50;10.90;;;6.32;;
60935;SDS011;46804;51.786;19.520;2023-05-17T07:57:50;10.60;;;6.75;;
60935;SDS011;46804;51.786;19.520;2023-05-17T08:01:52;13.98;;;7.13;;
60935;SDS011;46804;51.786;19.520;2023-05-17T08:05:53;15.85;;;7.65;;
60935;SDS011;46804;51.786;19.520;2023-05-17T08:09:53;14.25;;;7.78;;
60935;SDS011;46804;51.786;19.520;2023-05-17T08:13:54;14.55;;;6.78;;
60935;SDS011;46804;51.786;19.520;2023-05-17T08:17:55;13.35;;;7.32;;
60935;SDS011;46804;51.786;19.520;2023-05-17T08:21:56;12.38;;;7.82;;
60935;SDS011;46804;51.786;19.520;2023-05-17T08:25:58;18.08;;;8.75;;
60935;SDS011;46804;51.786;19.520;2023-05-17T08:29:58;11.77;;;6.97;;
60935;SDS011;46804;51.786;19.520;2023-05-17T08:34:00;14.10;;;7.35;;
60935;SDS011;46804;51.786;19.520;2023-05-17T08:38:00;16.85;;;6.65;;
60935;SDS011;46804;51.786;19.520;2023-05-17T08:42:02;13.10;;;7.57;;
60935;SDS011;46804;51.786;19.520;2023-05-17T08:46:07;14.93;;;7.45;;
60935;SDS011;46804;51.786;19.520;2023-05-17T08:50:09;15.67;;;6.93;;
60935;SDS011;46804;51.786;19.520;2023-05-17T08:54:12;10.88;;;5.75;;
60935;SDS011;46804;51.786;19.520;2023-05-17T08:58:18;9.50;;;5.60;;
60935;SDS011;46804;51.786;19.520;2023-05-17T09:02:20;12.73;;;4.93;;
60935;SDS011;46804;51.786;19.520;2023-05-17T09:06:23;11.00;;;4.63;;
60935;SDS011;46804;51.786;19.520;2023-05-17T09:10:24;6.50;;;3.72;;
60935;SDS011;46804;51.786;19.520;2023-05-17T09:14:30;6.13;;;3.05;;
60935;SDS011;46804;51.786;19.520;2023-05-17T09:18:32;7.45;;;4.15;;
60935;SDS011;46804;51.786;19.520;2023-05-17T09:22:33;11.18;;;3.50;;
60935;SDS011;46804;51.786;19.520;2023-05-17T09:26:39;9.50;;;3.30;;
60935;SDS011;46804;51.786;19.520;2023-05-17T09:30:46;8.90;;;3.25;;
60935;SDS011;46804;51.786;19.520;2023-05-17T09:38:52;6.07;;;2.80;;
60935;SDS011;46804;51.786;19.520;2023-05-17T09:42:58;8.25;;;3.22;;
60935;SDS011;46804;51.786;19.520;2023-05-17T09:46:59;6.72;;;3.25;;
60935;SDS011;46804;51.786;19.520;2023-05-17T09:50:59;7.95;;;3.15;;
60935;SDS011;46804;51.786;19.520;2023-05-17T09:55:00;5.15;;;2.60;;
60935;SDS011;46804;51.786;19.520;2023-05-17T09:59:01;5.05;;;2.80;;
60935;SDS011;46804;51.786;19.520;2023-05-17T10:03:03;8.43;;;3.00;;
60935;SDS011;46804;51.786;19.520;2023-05-17T10:07:05;7.38;;;3.10;;
60935;SDS011;46804;51.786;19.520;2023-05-17T10:11:09;5.57;;;2.85;;
60935;SDS011;46804;51.786;19.520;2023-05-17T10:15:10;8.18;;;3.22;;
60935;SDS011;46804;51.786;19.520;2023-05-17T10:19:11;7.60;;;3.03;;
60935;SDS011;46804;51.786;19.520;2023-05-17T10:23:13;8.75;;;3.13;;
60935;SDS011;46804;51.786;19.520;2023-05-17T10:27:15;11.60;;;3.15;;
60935;SDS011;46804;51.786;19.520;2023-05-17T10:31:16;10.15;;;3.00;;
60935;SDS011;46804;51.786;19.520;2023-05-17T10:35:17;8.00;;;2.70;;
60935;SDS011;46804;51.786;19.520;2023-05-17T10:39:19;10.25;;;2.67;;
60935;SDS011;46804;51.786;19.520;2023-05-17T10:43:21;7.68;;;2.83;;
60935;SDS011;46804;51.786;19.520;2023-05-17T10:47:30;6.53;;;2.90;;
60935;SDS011;46804;51.786;19.520;2023-05-17T10:51:32;9.88;;;2.75;;
60935;SDS011;46804;51.786;19.520;2023-05-17T10:55:42;10.85;;;2.47;;
60935;SDS011;46804;51.786;19.520;2023-05-17T10:59:59;8.57;;;2.50;;
60935;SDS011;46804;51.786;19.520;2023-05-17T11:04:18;4.22;;;2.53;;
60935;SDS011;46804;51.786;19.520;2023-05-17T11:08:20;8.05;;;2.67;;
60935;SDS011;46804;51.786;19.520;2023-05-17T11:12:32;4.93;;;2.40;;
60935;SDS011;46804;51.786;19.520;2023-05-17T11:16:36;6.93;;;2.20;;
60935;SDS011;46804;51.786;19.520;2023-05-17T11:20:37;6.78;;;2.60;;
60935;SDS011;46804;51.786;19.520;2023-05-17T11:24:37;9.77;;;2.50;;
60935;SDS011;46804;51.786;19.520;2023-05-17T11:28:43;6.78;;;2.45;;
60935;SDS011;46804;51.786;19.520;2023-05-17T11:32:51;4.82;;;2.20;;
60935;SDS011;46804;51.786;19.520;2023-05-17T11:36:53;8.45;;;3.40;;
60935;SDS011;46804;51.786;19.520;2023-05-17T11:40:55;13.37;;;3.07;;
60935;SDS011;46804;51.786;19.520;2023-05-17T11:44:57;6.55;;;2.80;;
60935;SDS011;46804;51.786;19.520;2023-05-17T11:49:00;9.05;;;3.00;;
60935;SDS011;46804;51.786;19.520;2023-05-17T11:53:03;14.65;;;3.50;;
60935;SDS011;46804;51.786;19.520;2023-05-17T11:57:06;10.10;;;2.78;;
60935;SDS011;46804;51.786;19.520;2023-05-17T12:01:08;5.83;;;2.70;;
60935;SDS011;46804;51.786;19.520;2023-05-17T12:05:10;4.35;;;2.40;;
60935;SDS011;46804;51.786;19.520;2023-05-17T12:09:13;8.60;;;2.90;;
60935;SDS011;46804;51.786;19.520;2023-05-17T12:13:17;14.38;;;3.38;;
60935;SDS011;46804;51.786;19.520;2023-05-17T12:17:27;8.55;;;3.05;;
60935;SDS011;46804;51.786;19.520;2023-05-17T12:21:34;9.27;;;3.55;;
60935;SDS011;46804;51.786;19.520;2023-05-17T12:25:35;9.10;;;3.97;;
60935;SDS011;46804;51.786;19.520;2023-05-17T12:29:37;7.53;;;3.78;;
60935;SDS011;46804;51.786;19.520;2023-05-17T12:33:39;8.13;;;3.47;;
60935;SDS011;46804;51.786;19.520;2023-05-17T12:37:42;13.32;;;3.72;;
60935;SDS011;46804;51.786;19.520;2023-05-17T12:41:42;10.18;;;3.97;;
60935;SDS011;46804;51.786;19.520;2023-05-17T12:45:43;8.48;;;3.88;;
60935;SDS011;46804;51.786;19.520;2023-05-17T12:49:51;10.50;;;3.67;;
60935;SDS011;46804;51.786;19.520;2023-05-17T12:53:54;10.18;;;4.15;;
60935;SDS011;46804;51.786;19.520;2023-05-17T12:57:56;8.90;;;3.87;;
60935;SDS011;46804;51.786;19.520;2023-05-17T13:02:03;13.80;;;4.07;;
60935;SDS011;46804;51.786;19.520;2023-05-17T13:06:04;9.63;;;4.35;;
60935;SDS011;46804;51.786;19.520;2023-05-17T13:10:20;9.88;;;3.78;;
60935;SDS011;46804;51.786;19.520;2023-05-17T13:14:41;11.63;;;4.63;;
60935;SDS011;46804;51.786;19.520;2023-05-17T13:18:47;13.05;;;4.30;;
60935;SDS011;46804;51.786;19.520;2023-05-17T13:22:51;11.70;;;4.65;;
60935;SDS011;46804;51.786;19.520;2023-05-17T13:26:52;11.02;;;4.05;;
60935;SDS011;46804;51.786;19.520;2023-05-17T13:30:53;11.38;;;4.32;;
60935;SDS011;46804;51.786;19.520;2023-05-17T13:34:54;17.95;;;5.15;;
60935;SDS011;46804;51.786;19.520;2023-05-17T13:38:54;12.52;;;5.18;;
60935;SDS011;46804;51.786;19.520;2023-05-17T13:42:56;9.48;;;4.00;;
60935;SDS011;46804;51.786;19.520;2023-05-17T13:46:56;13.15;;;5.53;;
60935;SDS011;46804;51.786;19.520;2023-05-17T13:50:57;13.15;;;4.57;;
60935;SDS011;46804;51.786;19.520;2023-05-17T13:54:59;14.27;;;4.90;;
60935;SDS011;46804;51.786;19.520;2023-05-17T13:59:00;11.68;;;4.82;;
60935;SDS011;46804;51.786;19.520;2023-05-17T14:03:00;11.50;;;4.28;;
60935;SDS011;46804;51.786;19.520;2023-05-17T14:07:02;13.55;;;5.05;;
60935;SDS011;46804;51.786;19.520;2023-05-17T14:11:03;13.30;;;4.45;;
60935;SDS011;46804;51.786;19.520;2023-05-17T14:15:04;11.48;;;5.10;;
60935;SDS011;46804;51.786;19.520;2023-05-17T14:19:05;10.48;;;5.13;;
60935;SDS011;46804;51.786;19.520;2023-05-17T14:23:06;13.82;;;4.57;;
60935;SDS011;46804;51.786;19.520;2023-05-17T14:27:07;8.38;;;3.97;;
60935;SDS011;46804;51.786;19.520;2023-05-17T14:31:08;8.93;;;4.50;;
60935;SDS011;46804;51.786;19.520;2023-05-17T14:35:09;8.55;;;4.47;;
60935;SDS011;46804;51.786;19.520;2023-05-17T14:39:10;12.45;;;4.30;;
60935;SDS011;46804;51.786;19.520;2023-05-17T14:43:11;14.88;;;4.35;;
60935;SDS011;46804;51.786;19.520;2023-05-17T14:47:11;10.23;;;4.50;;
60935;SDS011;46804;51.786;19.520;2023-05-17T14:51:12;10.80;;;4.50;;
60935;SDS011;46804;51.786;19.520;2023-05-17T14:55:13;14.38;;;4.05;;
60935;SDS011;46804;51.786;19.520;2023-05-17T14:59:15;12.40;;;4.13;;
60935;SDS011;46804;51.786;19.520;2023-05-17T15:03:16;11.18;;;4.05;;
60935;SDS011;46804;51.786;19.520;2023-05-17T15:07:17;8.77;;;4.28;;
60935;SDS011;46804;51.786;19.520;2023-05-17T15:11:19;13.27;;;4.43;;
60935;SDS011;46804;51.786;19.520;2023-05-17T15:15:19;10.82;;;4.10;;
60935;SDS011;46804;51.786;19.520;2023-05-17T15:19:21;13.00;;;5.20;;
60935;SDS011;46804;51.786;19.520;2023-05-17T15:23:22;11.75;;;4.97;;
60935;SDS011;46804;51.786;19.520;2023-05-17T15:27:23;9.82;;;4.30;;
60935;SDS011;46804;51.786;19.520;2023-05-17T15:31:23;10.88;;;4.68;;
60935;SDS011;46804;51.786;19.520;2023-05-17T15:35:24;10.07;;;4.28;;
60935;SDS011;46804;51.786;19.520;2023-05-17T15:39:26;15.23;;;5.63;;
60935;SDS011;46804;51.786;19.520;2023-05-17T15:43:27;13.88;;;4.63;;
60935;SDS011;46804;51.786;19.520;2023-05-17T15:47:27;11.70;;;4.70;;
60935;SDS011;46804;51.786;19.520;2023-05-17T15:51:29;17.40;;;4.97;;
60935;SDS011;46804;51.786;19.520;2023-05-17T15:55:29;15.57;;;4.63;;
60935;SDS011;46804;51.786;19.520;2023-05-17T15:59:30;11.82;;;4.90;;
60935;SDS011;46804;51.786;19.520;2023-05-17T16:03:31;18.17;;;5.18;;
60935;SDS011;46804;51.786;19.520;2023-05-17T16:07:32;7.85;;;3.83;;
60935;SDS011;46804;51.786;19.520;2023-05-17T16:11:33;10.85;;;4.63;;
60935;SDS011;46804;51.786;19.520;2023-05-17T16:15:34;9.13;;;4.25;;
60935;SDS011;46804;51.786;19.520;2023-05-17T16:19:34;14.60;;;5.00;;
60935;SDS011;46804;51.786;19.520;2023-05-17T16:23:35;12.77;;;5.28;;
60935;SDS011;46804;51.786;19.520;2023-05-17T16:27:36;11.90;;;4.13;;
60935;SDS011;46804;51.786;19.520;2023-05-17T16:31:37;12.30;;;4.15;;
60935;SDS011;46804;51.786;19.520;2023-05-17T16:35:37;10.20;;;4.43;;
60935;SDS011;46804;51.786;19.520;2023-05-17T16:39:38;11.48;;;4.53;;
60935;SDS011;46804;51.786;19.520;2023-05-17T16:43:39;9.05;;;4.25;;
60935;SDS011;46804;51.786;19.520;2023-05-17T16:47:40;13.15;;;4.38;;
60935;SDS011;46804;51.786;19.520;2023-05-17T16:51:40;18.63;;;5.07;;
60935;SDS011;46804;51.786;19.520;2023-05-17T16:55:41;10.18;;;4.65;;
60935;SDS011;46804;51.786;19.520;2023-05-17T16:59:41;13.95;;;4.35;;
60935;SDS011;46804;51.786;19.520;2023-05-17T17:03:42;9.32;;;4.30;;
60935;SDS011;46804;51.786;19.520;2023-05-17T17:07:43;11.88;;;4.40;;
60935;SDS011;46804;51.786;19.520;2023-05-17T17:11:45;12.00;;;4.78;;
60935;SDS011;46804;51.786;19.520;2023-05-17T17:15:46;10.90;;;4.18;;
60935;SDS011;46804;51.786;19.520;2023-05-17T17:19:46;13.55;;;4.47;;
60935;SDS011;46804;51.786;19.520;2023-05-17T17:23:47;12.48;;;5.38;;
60935;SDS011;46804;51.786;19.520;2023-05-17T17:27:48;13.05;;;4.78;;
60935;SDS011;46804;51.786;19.520;2023-05-17T17:31:49;10.02;;;4.18;;
60935;SDS011;46804;51.786;19.520;2023-05-17T17:35:50;23.58;;;5.30;;
60935;SDS011;46804;51.786;19.520;2023-05-17T17:39:51;9.00;;;4.35;;
60935;SDS011;46804;51.786;19.520;2023-05-17T17:43:52;11.52;;;4.35;;
60935;SDS011;46804;51.786;19.520;2023-05-17T17:47:53;11.18;;;4.85;;
60935;SDS011;46804;51.786;19.520;2023-05-17T17:51:53;17.63;;;4.82;;
60935;SDS011;46804;51.786;19.520;2023-05-17T17:55:54;11.93;;;4.72;;
60935;SDS011;46804;51.786;19.520;2023-05-17T17:59:55;9.13;;;4.60;;
60935;SDS011;46804;51.786;19.520;2023-05-17T18:03:59;7.25;;;4.30;;
60935;SDS011;46804;51.786;19.520;2023-05-17T18:08:00;9.52;;;4.63;;
60935;SDS011;46804;51.786;19.520;2023-05-17T18:12:01;8.63;;;4.32;;
60935;SDS011;46804;51.786;19.520;2023-05-17T18:16:02;10.27;;;4.35;;
60935;SDS011;46804;51.786;19.520;2023-05-17T18:20:03;6.55;;;3.83;;
60935;SDS011;46804;51.786;19.520;2023-05-17T18:24:06;10.18;;;4.72;;
60935;SDS011;46804;51.786;19.520;2023-05-17T18:28:07;10.48;;;4.43;;
60935;SDS011;46804;51.786;19.520;2023-05-17T18:32:08;13.30;;;5.00;;
60935;SDS011;46804;51.786;19.520;2023-05-17T18:36:09;8.50;;;4.22;;
60935;SDS011;46804;51.786;19.520;2023-05-17T18:40:10;12.63;;;4.80;;
60935;SDS011;46804;51.786;19.520;2023-05-17T18:44:11;20.25;;;5.30;;
60935;SDS011;46804;51.786;19.520;2023-05-17T18:48:12;8.43;;;5.32;;
60935;SDS011;46804;51.786;19.520;2023-05-17T18:52:13;19.05;;;5.50;;
60935;SDS011;46804;51.786;19.520;2023-05-17T18:56:14;11.95;;;5.60;;
60935;SDS011;46804;51.786;19.520;2023-05-17T19:00:21;15.57;;;4.82;;
60935;SDS011;46804;51.786;19.520;2023-05-17T19:04:22;10.25;;;4.90;;
60935;SDS011;46804;51.786;19.520;2023-05-17T19:08:23;9.15;;;4.70;;
60935;SDS011;46804;51.786;19.520;2023-05-17T19:12:24;14.23;;;4.82;;
60935;SDS011;46804;51.786;19.520;2023-05-17T19:16:25;11.82;;;4.70;;
60935;SDS011;46804;51.786;19.520;2023-05-17T19:20:26;10.43;;;5.20;;
60935;SDS011;46804;51.786;19.520;2023-05-17T19:24:26;9.40;;;4.35;;
60935;SDS011;46804;51.786;19.520;2023-05-17T19:28:27;13.35;;;5.47;;
60935;SDS011;46804;51.786;19.520;2023-05-17T19:32:30;12.48;;;4.70;;
60935;SDS011;46804;51.786;19.520;2023-05-17T19:36:32;11.50;;;5.28;;
60935;SDS011;46804;51.786;19.520;2023-05-17T19:40:33;12.82;;;5.60;;
60935;SDS011;46804;51.786;19.520;2023-05-17T19:44:35;12.05;;;4.28;;
60935;SDS011;46804;51.786;19.520;2023-05-17T19:48:35;17.00;;;4.90;;
60935;SDS011;46804;51.786;19.520;2023-05-17T19:52:36;8.98;;;4.38;;
60935;SDS011;46804;51.786;19.520;2023-05-17T19:56:37;10.00;;;4.35;;
60935;SDS011;46804;51.786;19.520;2023-05-17T20:00:38;15.80;;;4.40;;
60935;SDS011;46804;51.786;19.520;2023-05-17T20:04:39;8.30;;;3.50;;
60935;SDS011;46804;51.786;19.520;2023-05-17T20:08:39;11.63;;;3.80;;
60935;SDS011;46804;51.786;19.520;2023-05-17T20:12:42;8.77;;;3.70;;
60935;SDS011;46804;51.786;19.520;2023-05-17T20:16:43;11.63;;;3.97;;
60935;SDS011;46804;51.786;19.520;2023-05-17T20:20:44;12.07;;;4.57;;
60935;SDS011;46804;51.786;19.520;2023-05-17T20:24:45;12.02;;;3.50;;
60935;SDS011;46804;51.786;19.520;2023-05-17T20:28:45;15.07;;;3.60;;
60935;SDS011;46804;51.786;19.520;2023-05-17T20:32:46;11.90;;;3.95;;
60935;SDS011;46804;51.786;19.520;2023-05-17T20:36:47;12.23;;;3.97;;
60935;SDS011;46804;51.786;19.520;2023-05-17T20:40:48;9.93;;;3.75;;
60935;SDS011;46804;51.786;19.520;2023-05-17T20:44:48;11.10;;;3.50;;
60935;SDS011;46804;51.786;19.520;2023-05-17T20:48:52;12.27;;;3.28;;
60935;SDS011;46804;51.786;19.520;2023-05-17T20:52:55;13.50;;;3.13;;
60935;SDS011;46804;51.786;19.520;2023-05-17T20:56:56;12.65;;;3.60;;
60935;SDS011;46804;51.786;19.520;2023-05-17T21:00:57;14.60;;;3.67;;
60935;SDS011;46804;51.786;19.520;2023-05-17T21:05:02;11.88;;;3.20;;
60935;SDS011;46804;51.786;19.520;2023-05-17T21:09:04;10.50;;;4.00;;
60935;SDS011;46804;51.786;19.520;2023-05-17T21:13:05;8.95;;;3.17;;
60935;SDS011;46804;51.786;19.520;2023-05-17T21:17:06;9.88;;;3.22;;
60935;SDS011;46804;51.786;19.520;2023-05-17T21:21:09;9.32;;;3.20;;
60935;SDS011;46804;51.786;19.520;2023-05-17T21:25:10;9.85;;;3.15;;
60935;SDS011;46804;51.786;19.520;2023-05-17T21:29:11;11.27;;;3.30;;
60935;SDS011;46804;51.786;19.520;2023-05-17T21:33:12;9.43;;;2.90;;
60935;SDS011;46804;51.786;19.520;2023-05-17T21:37:12;10.68;;;2.75;;
60935;SDS011;46804;51.786;19.520;2023-05-17T21:41:13;5.93;;;2.10;;
60935;SDS011;46804;51.786;19.520;2023-05-17T21:45:14;9.90;;;3.10;;
60935;SDS011;46804;51.786;19.520;2023-05-17T21:49:15;6.93;;;2.65;;
60935;SDS011;46804;51.786;19.520;2023-05-17T21:53:15;9.07;;;2.47;;
60935;SDS011;46804;51.786;19.520;2023-05-17T21:57:16;9.20;;;2.50;;
60935;SDS011;46804;51.786;19.520;2023-05-17T22:01:20;8.50;;;2.72;;
60935;SDS011;46804;51.786;19.520;2023-05-17T22:05:23;7.35;;;2.95;;
60935;SDS011;46804;51.786;19.520;2023-05-17T22:09:24;10.00;;;2.22;;
60935;SDS011;46804;51.786;19.520;2023-05-17T22:13:25;8.93;;;2.58;;
60935;SDS011;46804;51.786;19.520;2023-05-17T22:17:26;13.38;;;2.40;;
60935;SDS011;46804;51.786;19.520;2023-05-17T22:21:31;5.03;;;2.10;;
60935;SDS011;46804;51.786;19.520;2023-05-17T22:25:32;10.13;;;2.95;;
60935;SDS011;46804;51.786;19.520;2023-05-17T22:29:33;9.95;;;2.60;;
60935;SDS011;46804;51.786;19.520;2023-05-17T22:33:34;6.10;;;2.50;;
60935;SDS011;46804;51.786;19.520;2023-05-17T22:41:40;9.60;;;2.28;;
60935;SDS011;46804;51.786;19.520;2023-05-17T22:45:41;7.90;;;2.65;;
60935;SDS011;46804;51.786;19.520;2023-05-17T22:49:42;9.05;;;2.25;;
60935;SDS011;46804;51.786;19.520;2023-05-17T22:53:42;7.10;;;2.00;;
60935;SDS011;46804;51.786;19.520;2023-05-17T22:57:43;7.38;;;2.50;;
60935;SDS011;46804;51.786;19.520;2023-05-17T23:01:44;7.10;;;2.50;;
60935;SDS011;46804;51.786;19.520;2023-05-17T23:05:44;4.22;;;1.98;;
60935;SDS011;46804;51.786;19.520;2023-05-17T23:09:45;17.30;;;2.78;;
60935;SDS011;46804;51.786;19.520;2023-05-17T23:13:46;8.30;;;2.70;;
60935;SDS011;46804;51.786;19.520;2023-05-17T23:17:47;6.15;;;2.10;;
60935;SDS011;46804;51.786;19.520;2023-05-17T23:21:47;3.72;;;1.90;;
60935;SDS011;46804;51.786;19.520;2023-05-17T23:25:48;5.40;;;1.98;;
60935;SDS011;46804;51.786;19.520;2023-05-17T23:29:50;7.03;;;1.90;;
60935;SDS011;46804;51.786;19.520;2023-05-17T23:33:53;5.38;;;2.22;;
60935;SDS011;46804;51.786;19.520;2023-05-17T23:37:54;10.95;;;2.35;;
60935;SDS011;46804;51.786;19.520;2023-05-17T23:41:54;6.35;;;2.28;;
60935;SDS011;46804;51.786;19.520;2023-05-17T23:45:55;9.80;;;2.08;;
60935;SDS011;46804;51.786;19.520;2023-05-17T23:49:56;3.60;;;1.90;;
60935;SDS011;46804;51.786;19.520;2023-05-17T23:53:57;8.63;;;2.25;;
60935;SDS011;46804;51.786;19.520;2023-05-17T23:57:58;7.20;;;2.15;;
